Time;durP1;ratioP1;P1;durP2;ratioP2;P2;SDS_P1;SDS_P2;PMS_P1;PMS_P2;Temp;Humidity;BMP_temperature;BMP_pressure;BME280_temperature;BME280_humidity;BME280_pressure;Samples;Min_cycle;Max_cycle;Signal;HPM_P1;HPM_P2
2022/08/28 00:00:12;;;;;;;15.45;8.48;;;;;;;18.91;100.00;96138.19;5059684;28;20703;-66
2022/08/28 00:02:39;;;;;;;17.40;8.48;;;;;;;18.79;100.00;96149.91;5059209;28;20226;-68
2022/08/28 00:05:07;;;;;;;15.65;8.77;;;;;;;18.81;100.00;96145.97;5059742;28;20219;-68
2022/08/28 00:07:34;;;;;;;15.52;8.20;;;;;;;18.78;100.00;96137.63;5059129;28;20215;-68
2022/08/28 00:10:02;;;;;;;14.23;8.35;;;;;;;18.84;100.00;96134.84;5060093;28;20204;-68
2022/08/28 00:12:28;;;;;;;16.60;8.38;;;;;;;18.73;100.00;96140.16;5058684;28;20224;-68
2022/08/28 00:14:55;;;;;;;16.50;8.90;;;;;;;18.75;100.00;96135.38;5059612;28;21296;-68
2022/08/28 00:17:21;;;;;;;16.92;8.57;;;;;;;18.64;100.00;96144.19;5059732;28;20664;-68
2022/08/28 00:19:47;;;;;;;14.57;8.27;;;;;;;18.74;100.00;96145.25;5059375;28;20207;-68
2022/08/28 00:22:14;;;;;;;18.40;8.25;;;;;;;18.81;100.00;96148.63;5058998;28;20226;-67
2022/08/28 00:24:41;;;;;;;16.77;9.30;;;;;;;18.83;100.00;96146.56;5059406;28;20231;-67
2022/08/28 00:29:53;;;;;;;14.45;7.93;;;;;;;18.78;100.00;96149.09;5058924;28;20702;-69
2022/08/28 00:32:22;;;;;;;14.65;8.13;;;;;;;18.78;100.00;96148.28;5058104;28;20208;-68
2022/08/28 00:34:48;;;;;;;17.58;8.85;;;;;;;18.78;100.00;96146.44;5059658;28;20210;-68
2022/08/28 00:37:15;;;;;;;15.20;8.63;;;;;;;18.80;100.00;96154.19;5059314;28;20224;-69
2022/08/28 00:39:41;;;;;;;17.02;8.20;;;;;;;18.83;100.00;96138.53;5059205;28;20583;-68
2022/08/28 00:42:10;;;;;;;14.73;8.07;;;;;;;18.93;100.00;96136.13;5059178;28;20215;-68
2022/08/28 00:44:37;;;;;;;17.02;8.80;;;;;;;18.75;100.00;96141.56;5058594;28;20744;-68
2022/08/28 00:47:03;;;;;;;15.70;7.95;;;;;;;18.85;100.00;96141.81;5058876;28;20228;-68
2022/08/28 00:49:35;;;;;;;20.27;8.52;;;;;;;18.93;100.00;96136.13;5055172;28;20203;-67
2022/08/28 00:52:07;;;;;;;17.30;7.80;;;;;;;18.91;100.00;96130.19;5058887;28;20614;-67
2022/08/28 00:54:36;;;;;;;15.70;7.88;;;;;;;18.87;100.00;96128.22;5058531;28;20760;-68
2022/08/28 00:57:05;;;;;;;17.05;8.45;;;;;;;18.88;100.00;96125.31;5059194;28;20219;-68
2022/08/28 00:59:35;;;;;;;14.73;7.90;;;;;;;18.89;100.00;96132.28;5058850;28;20215;-69
2022/08/28 01:02:01;;;;;;;16.00;8.40;;;;;;;18.82;100.00;96128.91;5058943;28;20209;-68
2022/08/28 01:04:31;;;;;;;18.25;8.60;;;;;;;18.86;100.00;96127.38;5058005;28;20225;-68
2022/08/28 01:06:59;;;;;;;14.30;8.20;;;;;;;18.85;100.00;96128.47;5058744;28;20708;-67
2022/08/28 01:09:28;;;;;;;14.20;7.70;;;;;;;18.85;100.00;96130.28;5058837;28;20204;-68
2022/08/28 01:12:00;;;;;;;15.00;8.30;;;;;;;18.74;100.00;96118.56;5058623;28;20212;-68
2022/08/28 01:14:28;;;;;;;15.23;8.10;;;;;;;18.62;100.00;96130.25;5057548;28;20286;-68
2022/08/28 01:16:57;;;;;;;15.73;8.13;;;;;;;18.72;100.00;96125.97;5058324;28;20207;-68
2022/08/28 01:19:30;;;;;;;15.43;7.50;;;;;;;18.70;100.00;96121.91;5058313;28;20588;-68
2022/08/28 01:22:06;;;;;;;13.63;7.85;;;;;;;18.72;100.00;96120.63;5058269;28;20239;-68
2022/08/28 01:24:35;;;;;;;13.48;7.43;;;;;;;18.70;100.00;96121.91;5057879;28;20219;-68
2022/08/28 01:27:02;;;;;;;13.93;6.85;;;;;;;18.48;100.00;96123.47;5058514;28;20211;-69
2022/08/28 01:29:29;;;;;;;14.52;6.93;;;;;;;18.40;100.00;96129.97;5058180;28;20204;-68
2022/08/28 01:31:55;;;;;;;15.30;7.32;;;;;;;18.41;100.00;96126.25;5058268;28;20205;-69
2022/08/28 01:34:22;;;;;;;15.60;7.40;;;;;;;18.40;100.00;96137.97;5057344;28;20258;-67
2022/08/28 01:36:48;;;;;;;13.60;7.45;;;;;;;18.42;100.00;96121.75;5058487;28;20212;-68
2022/08/28 01:39:18;;;;;;;15.50;7.97;;;;;;;18.52;100.00;96125.47;5056967;28;20204;-69
2022/08/28 01:41:50;;;;;;;12.93;6.97;;;;;;;18.61;100.00;96124.13;5057598;28;20208;-68
2022/08/28 01:44:23;;;;;;;13.90;7.10;;;;;;;18.43;100.00;96123.34;5056772;28;20225;-68
2022/08/28 01:46:50;;;;;;;12.07;6.93;;;;;;;18.44;100.00;96128.50;5057981;28;20301;-68
2022/08/28 01:49:17;;;;;;;15.18;7.38;;;;;;;18.41;100.00;96126.25;5055310;28;20200;-69
2022/08/28 01:51:44;;;;;;;13.75;6.97;;;;;;;18.39;100.00;96128.34;5057666;28;20200;-68
2022/08/28 01:54:11;;;;;;;14.25;8.05;;;;;;;18.46;100.00;96126.38;5056994;28;20232;-68
2022/08/28 01:56:38;;;;;;;13.68;7.25;;;;;;;18.49;100.00;96135.78;5058209;28;20215;-67
2022/08/28 01:59:09;;;;;;;14.52;7.57;;;;;;;18.53;100.00;96135.13;5057177;28;20204;-67
2022/08/28 02:01:36;;;;;;;14.07;7.43;;;;;;;18.41;100.00;96134.25;5057948;28;20402;-68
2022/08/28 02:04:03;;;;;;;21.42;7.47;;;;;;;18.53;100.00;96135.13;5056859;28;20603;-68
2022/08/28 02:06:30;;;;;;;14.98;7.97;;;;;;;18.51;100.00;96133.72;5057061;28;20209;-67
2022/08/28 02:08:57;;;;;;;17.63;8.70;;;;;;;18.59;100.00;96136.06;5057109;28;20570;-68
2022/08/28 02:11:24;;;;;;;16.92;8.50;;;;;;;18.68;100.00;96130.16;5056657;28;20207;-68
2022/08/28 02:13:52;;;;;;;18.40;9.52;;;;;;;18.71;100.00;96126.22;5056539;28;20243;-67
2022/08/28 02:16:21;;;;;;;20.85;9.90;;;;;;;18.78;100.00;96130.41;5057261;28;20208;-69
2022/08/28 02:18:47;;;;;;;17.55;8.82;;;;;;;18.74;100.00;96136.44;5057299;28;20215;-67
2022/08/28 02:21:14;;;;;;;18.45;9.43;;;;;;;18.81;100.00;96123.78;5056758;28;20703;-68
2022/08/28 02:23:43;;;;;;;20.90;10.05;;;;;;;18.84;100.00;96129.50;5056706;28;20220;-68
2022/08/28 02:26:10;;;;;;;19.00;9.20;;;;;;;18.78;100.00;96125.06;5056502;28;20204;-68
2022/08/28 02:28:37;;;;;;;18.75;8.90;;;;;;;18.77;100.00;96130.63;5057433;28;20205;-67
2022/08/28 02:31:04;;;;;;;19.80;9.00;;;;;;;18.78;100.00;96126.94;5057280;28;20208;-68
2022/08/28 02:33:32;;;;;;;19.85;9.90;;;;;;;18.94;100.00;96129.75;5055901;28;20319;-68
2022/08/28 02:35:59;;;;;;;20.20;10.60;;;;;;;18.80;100.00;96123.00;5057343;28;20591;-67
2022/08/28 02:38:25;;;;;;;20.02;10.05;;;;;;;18.93;100.00;96128.13;5056766;28;20213;-67
2022/08/28 02:40:52;;;;;;;20.05;10.15;;;;;;;18.87;100.00;96129.03;5054165;28;20622;-69
2022/08/28 02:43:18;;;;;;;20.88;9.90;;;;;;;18.82;100.00;96126.22;5055999;28;20238;-68
2022/08/28 02:45:45;;;;;;;19.08;9.82;;;;;;;18.91;100.00;96130.19;5057398;28;20200;-68
2022/08/28 02:48:11;;;;;;;20.90;9.88;;;;;;;18.95;100.00;96126.84;5054886;28;20204;-69
2022/08/28 02:50:39;;;;;;;20.90;9.75;;;;;;;19.05;100.00;96131.59;5056255;28;20209;-69
2022/08/28 02:53:05;;;;;;;18.63;8.63;;;;;;;18.93;100.00;96130.78;5055428;28;20228;-67
2022/08/28 02:55:32;;;;;;;22.27;9.10;;;;;;;18.99;100.00;96129.84;5056430;28;20665;-68
2022/08/28 02:57:59;;;;;;;18.95;10.00;;;;;;;18.97;100.00;96126.59;5057039;28;20204;-67
2022/08/28 03:00:26;;;;;;;19.20;10.55;;;;;;;18.91;100.00;96127.50;5056702;28;20299;-67
2022/08/28 03:02:53;;;;;;;23.30;10.18;;;;;;;19.00;100.00;96126.13;5056441;28;20221;-69
2022/08/28 03:05:23;;;;;;;21.15;9.63;;;;;;;18.97;100.00;96123.94;5056814;28;20208;-68
2022/08/28 03:07:52;;;;;;;25.67;10.15;;;;;;;19.00;100.00;96132.31;5056725;28;20205;-68
2022/08/28 03:10:19;;;;;;;20.08;9.20;;;;;;;18.92;100.00;96129.16;5056561;28;20208;-68
2022/08/28 03:12:46;;;;;;;20.83;10.23;;;;;;;18.88;100.00;96130.66;5055662;28;20224;-68
2022/08/28 03:15:13;;;;;;;21.70;10.98;;;;;;;18.97;100.00;96123.94;5056493;28;20228;-68
2022/08/28 03:17:41;;;;;;;18.83;10.18;;;;;;;19.01;100.00;96130.44;5056903;28;20583;-68
2022/08/28 03:20:10;;;;;;;23.83;10.98;;;;;;;19.08;100.00;96125.81;5056249;28;20208;-67
2022/08/28 03:25:23;;;;;;;24.05;11.23;;;;;;;19.07;100.00;96119.66;5056734;28;20622;-69
2022/08/28 03:27:51;;;;;;;25.83;11.43;;;;;;;19.05;100.00;96126.25;5056160;28;20735;-67
2022/08/28 03:30:19;;;;;;;24.10;11.77;;;;;;;19.09;100.00;96127.44;5056487;28;20200;-68
2022/08/28 03:32:46;;;;;;;24.88;10.60;;;;;;;19.06;100.00;96125.25;5056214;28;20228;-68
2022/08/28 03:35:12;;;;;;;21.55;10.40;;;;;;;19.02;100.00;96122.19;5056148;28;20715;-67
2022/08/28 03:37:39;;;;;;;20.83;10.73;;;;;;;19.04;100.00;96122.78;5056748;28;20205;-67
2022/08/28 03:40:07;;;;;;;24.90;10.88;;;;;;;19.15;100.00;96129.19;5056723;28;20212;-68
2022/08/28 03:42:35;;;;;;;21.77;10.77;;;;;;;19.22;100.00;96124.53;5055879;28;20845;-68
2022/08/28 03:45:02;;;;;;;23.13;11.10;;;;;;;19.14;100.00;96130.25;5055972;28;20226;-68
2022/08/28 03:47:28;;;;;;;21.10;10.13;;;;;;;19.17;100.00;96132.44;5056104;28;20256;-68
2022/08/28 03:49:56;;;;;;;26.63;12.02;;;;;;;19.18;100.00;96136.75;5053857;28;20214;-69
2022/08/28 03:52:23;;;;;;;21.65;10.55;;;;;;;19.19;100.00;96133.84;5054900;28;20734;-67
2022/08/28 03:54:49;;;;;;;27.00;11.52;;;;;;;19.15;100.00;96137.22;5056577;28;20704;-68
2022/08/28 03:57:18;;;;;;;22.90;11.50;;;;;;;19.22;100.00;96141.41;5056277;28;20201;-68
2022/08/28 03:59:47;;;;;;;25.95;12.25;;;;;;;19.28;100.00;96140.44;5056545;28;20565;-68
2022/08/28 04:02:14;;;;;;;27.80;11.90;;;;;;;19.21;100.00;96144.31;5059416;28;20207;-68
2022/08/28 04:04:40;;;;;;;30.25;12.65;;;;;;;19.19;100.00;96138.38;5059820;28;20217;-68
2022/08/28 04:07:07;;;;;;;25.30;11.40;;;;;;;19.14;100.00;96140.94;5059930;28;20208;-67
2022/08/28 04:09:33;;;;;;;25.73;11.40;;;;;;;19.15;100.00;96140.69;5059935;28;20211;-68
2022/08/28 04:12:00;;;;;;;26.67;12.18;;;;;;;19.18;100.00;96142.09;5059571;28;20204;-68
2022/08/28 04:14:27;;;;;;;24.27;11.70;;;;;;;19.23;100.00;96144.88;5058878;28;21165;-67
2022/08/28 04:16:54;;;;;;;27.08;11.77;;;;;;;19.27;100.00;96141.53;5059875;28;20207;-68
2022/08/28 04:19:21;;;;;;;24.90;11.80;;;;;;;19.10;100.00;96150.44;5059418;28;20205;-68
2022/08/28 04:21:48;;;;;;;29.02;13.32;;;;;;;19.05;100.00;96150.28;5059812;28;20220;-68
2022/08/28 04:24:14;;;;;;;29.17;14.07;;;;;;;19.09;100.00;96149.66;5058875;28;20256;-68
2022/08/28 04:26:41;;;;;;;26.17;13.32;;;;;;;19.07;100.00;96154.41;5059391;28;20208;-68
2022/08/28 04:29:08;;;;;;;26.45;12.93;;;;;;;19.11;100.00;96146.75;5059421;28;20209;-68
2022/08/28 04:31:35;;;;;;;33.05;13.38;;;;;;;19.15;100.00;96153.25;5059180;28;20687;-67
2022/08/28 04:34:06;;;;;;;31.30;13.55;;;;;;;19.25;100.00;96150.81;5058523;28;20243;-67
2022/08/28 04:36:33;;;;;;;28.83;13.38;;;;;;;19.08;100.00;96148.00;5059464;28;21090;-67
2022/08/28 04:39:01;;;;;;;33.92;13.82;;;;;;;19.13;100.00;96149.97;5059311;28;20619;-68
2022/08/28 04:41:29;;;;;;;30.10;14.07;;;;;;;19.12;100.00;96148.38;5058861;28;20205;-69
2022/08/28 04:43:56;;;;;;;28.55;13.82;;;;;;;19.10;100.00;96151.25;5057889;28;20230;-69
2022/08/28 04:46:24;;;;;;;30.65;13.95;;;;;;;19.09;100.00;96146.97;5058550;28;20211;-69
2022/08/28 04:48:50;;;;;;;30.85;14.02;;;;;;;19.09;100.00;96154.16;5056795;28;20633;-69
2022/08/28 04:51:19;;;;;;;32.08;13.82;;;;;;;19.10;100.00;96145.09;5059063;28;20744;-69
2022/08/28 04:53:45;;;;;;;27.75;13.10;;;;;;;19.06;100.00;96150.09;5057990;28;20224;-69
2022/08/28 04:56:14;;;;;;;31.15;13.68;;;;;;;19.17;100.00;96154.63;5059083;28;20957;-69
2022/08/28 04:58:42;;;;;;;30.45;13.82;;;;;;;19.16;100.00;96152.22;5058819;28;20209;-69
2022/08/28 05:01:12;;;;;;;31.38;13.73;;;;;;;19.21;100.00;96157.66;5058830;28;20736;-68
2022/08/28 05:03:39;;;;;;;35.67;14.35;;;;;;;19.00;100.00;96155.50;5057938;28;20289;-69
2022/08/28 05:06:06;;;;;;;30.67;13.60;;;;;;;19.07;100.00;96161.59;5059051;28;20208;-69
2022/08/28 05:08:34;;;;;;;30.83;14.63;;;;;;;19.13;100.00;96160.66;5058395;28;20192;-69
2022/08/28 05:11:09;;;;;;;34.78;14.68;;;;;;;19.19;100.00;96160.53;5058717;28;20205;-70
2022/08/28 05:13:36;;;;;;;34.85;14.13;;;;;;;19.09;100.00;96156.84;5056910;28;20223;-69
2022/08/28 05:16:04;;;;;;;31.42;13.75;;;;;;;19.18;100.00;96158.94;5058701;28;20308;-69
2022/08/28 05:18:31;;;;;;;34.35;13.23;;;;;;;19.08;100.00;96165.88;5058437;28;20687;-69
2022/08/28 05:20:57;;;;;;;35.05;15.00;;;;;;;19.07;100.00;96167.75;5058437;28;20581;-69
2022/08/28 05:23:24;;;;;;;29.75;14.02;;;;;;;19.14;100.00;96162.28;5057690;28;20225;-68
2022/08/28 05:25:52;;;;;;;33.00;13.93;;;;;;;19.13;100.00;96168.69;5058234;28;20257;-69
2022/08/28 05:28:19;;;;;;;30.70;14.05;;;;;;;19.06;100.00;96176.00;5058200;28;20208;-69
2022/08/28 05:30:46;;;;;;;33.25;14.77;;;;;;;19.09;100.00;96175.53;5058244;28;20216;-69
2022/08/28 05:33:14;;;;;;;30.33;14.00;;;;;;;19.06;100.00;96167.97;5057392;28;20227;-69
2022/08/28 05:35:43;;;;;;;36.10;15.82;;;;;;;19.08;100.00;96176.56;5058060;28;20228;-69
2022/08/28 05:38:10;;;;;;;29.08;13.75;;;;;;;19.01;100.00;96173.16;5058142;28;20204;-69
2022/08/28 05:40:41;;;;;;;32.17;15.27;;;;;;;19.10;100.00;96182.50;5057500;28;20720;-70
2022/08/28 05:43:09;;;;;;;30.92;14.70;;;;;;;19.15;100.00;96182.63;5057264;28;21546;-69
2022/08/28 05:45:36;;;;;;;30.27;14.32;;;;;;;19.02;100.00;96183.63;5058225;28;20200;-69
2022/08/28 05:48:03;;;;;;;33.92;14.43;;;;;;;19.05;100.00;96191.19;5055544;28;20211;-69
2022/08/28 05:50:30;;;;;;;31.52;14.75;;;;;;;18.97;100.00;96188.84;5057464;28;20197;-69
2022/08/28 05:52:56;;;;;;;36.38;15.68;;;;;;;18.95;100.00;96190.09;5057076;28;21420;-69
2022/08/28 05:55:23;;;;;;;32.70;14.77;;;;;;;19.02;100.00;96196.97;5057702;28;20224;-69
2022/08/28 05:57:50;;;;;;;29.75;14.88;;;;;;;19.00;100.00;96198.25;5056083;28;20204;-69
2022/08/28 06:00:18;;;;;;;33.85;14.65;;;;;;;19.15;100.00;96193.31;5057010;28;20196;-69
2022/08/28 06:02:44;;;;;;;33.00;15.50;;;;;;;19.04;100.00;96191.41;5056173;28;20224;-69
2022/08/28 06:05:11;;;;;;;33.97;14.80;;;;;;;18.97;100.00;96199.50;5056322;28;20689;-69
2022/08/28 06:07:38;;;;;;;36.85;15.52;;;;;;;18.79;100.00;96197.94;5056488;28;20205;-69
2022/08/28 06:10:06;;;;;;;35.65;16.83;;;;;;;19.01;100.00;96205.22;5056061;28;20668;-69
2022/08/28 06:12:32;;;;;;;33.10;15.60;;;;;;;18.93;100.00;96203.69;5055743;28;20204;-69
2022/08/28 06:14:59;;;;;;;38.42;15.95;;;;;;;18.90;100.00;96207.88;5057091;28;20228;-69
2022/08/28 06:17:27;;;;;;;39.80;15.90;;;;;;;18.98;100.00;96200.34;5056518;28;21668;-70
2022/08/28 06:19:53;;;;;;;36.63;16.33;;;;;;;18.90;100.00;96203.31;5057308;28;20210;-69
2022/08/28 06:22:20;;;;;;;38.15;14.90;;;;;;;18.79;100.00;96206.78;5056179;28;20208;-69
2022/08/28 06:24:46;;;;;;;38.47;14.80;;;;;;;18.87;100.00;96209.13;5055647;28;20227;-69
2022/08/28 06:27:13;;;;;;;40.00;15.90;;;;;;;18.96;100.00;96213.09;5057285;28;20204;-68
2022/08/28 06:29:40;;;;;;;39.75;16.48;;;;;;;18.94;100.00;96220.53;5057163;28;20208;-69
2022/08/28 06:32:07;;;;;;;31.73;15.55;;;;;;;19.06;100.00;96219.53;5056673;28;20205;-69
2022/08/28 06:34:35;;;;;;;31.65;14.45;;;;;;;19.40;100.00;96215.28;5055911;28;20332;-69
2022/08/28 06:37:02;;;;;;;32.72;16.00;;;;;;;19.33;100.00;96219.94;5057065;28;20208;-68
2022/08/28 06:39:28;;;;;;;31.88;13.43;;;;;;;19.38;100.00;96218.19;5056860;28;20219;-68
2022/08/28 06:41:55;;;;;;;33.92;14.70;;;;;;;19.41;100.00;96219.59;5057073;28;20664;-68
2022/08/28 06:44:22;;;;;;;26.08;13.25;;;;;;;19.62;100.00;96220.63;5056049;28;20228;-69
2022/08/28 06:46:51;;;;;;;28.83;14.02;;;;;;;19.85;100.00;96228.66;5057084;28;20205;-69
2022/08/28 06:49:17;;;;;;;27.23;13.15;;;;;;;19.35;100.00;96224.00;5054331;28;20209;-69
2022/08/28 06:51:45;;;;;;;30.40;12.63;;;;;;;19.61;100.00;96224.38;5055912;28;20203;-69
2022/08/28 06:54:14;;;;;;;29.83;11.73;;;;;;;19.69;100.00;96228.53;5055781;28;20224;-69
2022/08/28 06:56:40;;;;;;;30.45;13.77;;;;;;;19.61;100.00;96236.91;5056357;28;20200;-69
2022/08/28 06:59:07;;;;;;;26.35;12.95;;;;;;;19.59;100.00;96239.03;5056284;28;20687;-68
2022/08/28 07:01:36;;;;;;;27.05;12.40;;;;;;;19.77;100.00;96229.00;5057037;28;20223;-68
2022/08/28 07:04:05;;;;;;;24.48;11.95;;;;;;;19.79;100.00;96231.44;5056181;28;20304;-68
2022/08/28 07:06:33;;;;;;;26.48;11.40;;;;;;;19.99;100.00;96232.72;5056493;28;20210;-69
2022/08/28 07:09:01;;;;;;;22.98;10.25;;;;;;;20.03;100.00;96239.25;5055889;28;20254;-69
2022/08/28 07:11:30;;;;;;;20.35;9.93;;;;;;;19.88;100.00;96246.09;5055795;28;20294;-69
2022/08/28 07:13:58;;;;;;;17.35;9.07;;;;;;;19.76;100.00;96243.41;5055788;28;20224;-69
2022/08/28 07:16:27;;;;;;;19.52;9.88;;;;;;;19.59;100.00;96242.50;5056449;28;20221;-68
2022/08/28 07:18:54;;;;;;;18.95;9.63;;;;;;;19.61;100.00;96244.94;5055336;28;20677;-68
2022/08/28 07:21:20;;;;;;;19.42;9.65;;;;;;;19.60;100.00;96248.66;5055660;28;20196;-69
2022/08/28 07:23:47;;;;;;;18.63;9.10;;;;;;;19.46;100.00;96246.44;5055269;28;20220;-69
2022/08/28 07:26:18;;;;;;;18.48;9.45;;;;;;;19.49;100.00;96251.31;5055570;28;20204;-68
2022/08/28 07:28:44;;;;;;;20.58;9.90;;;;;;;19.46;100.00;96252.59;5055882;28;20215;-69
2022/08/28 07:31:13;;;;;;;19.70;9.35;;;;;;;19.52;100.00;96253.53;5056420;28;20197;-68
2022/08/28 07:33:41;;;;;;;21.88;9.88;;;;;;;19.64;100.00;96255.97;5053716;28;20229;-68
2022/08/28 07:36:09;;;;;;;19.17;9.82;;;;;;;19.70;100.00;96262.25;5057061;28;20220;-68
2022/08/28 07:38:36;;;;;;;18.48;9.93;;;;;;;19.48;100.00;96271.88;5060024;28;20207;-69
2022/08/28 07:41:03;;;;;;;19.58;10.07;;;;;;;19.54;100.00;96264.78;5060467;28;20204;-68
2022/08/28 07:46:15;;;;;;;20.20;10.60;;;;;;;19.57;100.00;96283.06;5060216;28;20207;-68
2022/08/28 07:48:41;;;;;;;21.33;10.40;;;;;;;19.59;100.00;96281.78;5057459;28;20212;-68
2022/08/28 07:51:09;;;;;;;21.48;11.23;;;;;;;19.60;100.00;96288.75;5060474;28;20231;-68
2022/08/28 07:53:36;;;;;;;25.45;11.15;;;;;;;19.64;100.00;96289.94;5058990;28;20232;-69
2022/08/28 07:56:03;;;;;;;25.02;11.05;;;;;;;19.62;100.00;96292.81;5059503;28;20259;-69
2022/08/28 07:58:31;;;;;;;27.80;11.15;;;;;;;19.64;100.00;96292.63;5060100;28;20599;-69
2022/08/28 08:00:59;;;;;;;30.10;11.02;;;;;;;19.49;100.00;96288.72;5059769;28;20208;-69
2022/08/28 08:03:25;;;;;;;19.00;9.95;;;;;;;19.58;100.00;96286.31;5059473;28;20343;-69
2022/08/28 08:05:53;;;;;;;25.60;10.52;;;;;;;19.67;100.00;96292.13;5059674;28;20291;-68
2022/08/28 08:08:20;;;;;;;22.95;10.50;;;;;;;19.57;100.00;96290.03;5059684;28;20208;-68
2022/08/28 08:10:56;;;;;;;21.20;9.65;;;;;;;19.88;100.00;96295.06;5059853;28;20208;-69
2022/08/28 08:13:22;;;;;;;21.30;10.75;;;;;;;19.67;100.00;96308.19;5058967;28;20227;-69
2022/08/28 08:15:50;;;;;;;19.40;10.02;;;;;;;19.73;100.00;96301.91;5059923;28;20220;-68
2022/08/28 08:18:17;;;;;;;21.15;10.98;;;;;;;19.53;100.00;96309.44;5059453;28;20287;-69
2022/08/28 08:20:43;;;;;;;22.45;10.68;;;;;;;19.53;100.00;96304.09;5058853;28;20204;-69
2022/08/28 08:23:10;;;;;;;21.35;10.35;;;;;;;19.52;100.00;96307.00;5058451;28;20224;-69
2022/08/28 08:25:36;;;;;;;22.27;11.13;;;;;;;19.60;100.00;96305.63;5059274;28;20205;-69
2022/08/28 08:28:04;;;;;;;21.45;9.80;;;;;;;19.75;100.00;96310.50;5059335;28;20208;-69
2022/08/28 08:30:30;;;;;;;24.20;11.13;;;;;;;19.68;100.00;96309.81;5059466;28;20204;-69
2022/08/28 08:32:58;;;;;;;23.05;11.50;;;;;;;19.80;100.00;96313.31;5055610;28;20220;-69
2022/08/28 08:35:25;;;;;;;18.65;9.43;;;;;;;19.67;100.00;96306.31;5056896;28;20220;-69
2022/08/28 08:37:51;;;;;;;19.10;10.13;;;;;;;19.81;100.00;96315.75;5057354;28;20211;-69
2022/08/28 08:40:19;;;;;;;24.65;11.60;;;;;;;19.66;100.00;96320.72;5057361;28;20204;-69
2022/08/28 08:42:49;;;;;;;20.67;10.25;;;;;;;19.83;100.00;96329.72;5056995;28;20224;-69
2022/08/28 08:45:20;;;;;;;20.88;10.82;;;;;;;19.70;100.00;96324.59;5057370;28;20287;-69
2022/08/28 08:47:50;;;;;;;18.27;9.00;;;;;;;19.72;100.00;96327.81;5056127;28;20208;-69
2022/08/28 08:50:22;;;;;;;18.85;10.25;;;;;;;19.77;100.00;96324.47;5055073;28;20207;-68
2022/08/28 08:52:57;;;;;;;23.48;10.50;;;;;;;19.65;100.00;96334.31;5056497;28;20251;-69
2022/08/28 08:55:27;;;;;;;25.17;10.80;;;;;;;19.74;100.00;96331.09;5056943;28;20220;-69
2022/08/28 08:58:03;;;;;;;26.67;10.50;;;;;;;19.72;100.00;96330.50;5057358;28;20204;-68
2022/08/28 09:00:34;;;;;;;20.48;10.40;;;;;;;19.70;100.00;96334.44;5057227;28;20322;-68
2022/08/28 09:03:06;;;;;;;20.48;10.57;;;;;;;19.85;100.00;96332.94;5055618;28;20250;-69
2022/08/28 09:05:48;;;;;;;22.17;10.35;;;;;;;19.66;100.00;96334.09;5057791;28;21096;-68
2022/08/28 09:08:27;;;;;;;22.17;10.98;;;;;;;19.81;100.00;96337.13;5057030;28;20283;-68
2022/08/28 09:11:04;;;;;;;24.70;11.52;;;;;;;20.01;100.00;96342.19;5055993;28;20212;-69
2022/08/28 09:13:41;;;;;;;19.73;10.30;;;;;;;20.00;100.00;96341.38;5055874;28;20231;-69
2022/08/28 09:16:23;;;;;;;22.08;11.40;;;;;;;20.19;100.00;96340.22;5057389;28;20224;-66
2022/08/28 09:18:53;;;;;;;23.88;11.43;;;;;;;20.11;100.00;96343.25;5056391;28;20208;-67
2022/08/28 09:21:35;;;;;;;20.67;11.20;;;;;;;20.60;100.00;96348.06;5056543;28;20260;-69
2022/08/28 09:24:04;;;;;;;24.25;11.52;;;;;;;20.49;100.00;96346.22;5056177;28;20227;-67
2022/08/28 09:26:30;;;;;;;24.27;11.40;;;;;;;20.54;100.00;96347.13;5056848;28;20205;-69
2022/08/28 09:29:04;;;;;;;26.52;11.38;;;;;;;20.53;100.00;96358.09;5055188;28;20204;-69
2022/08/28 09:31:34;;;;;;;23.30;10.80;;;;;;;20.64;100.00;96354.59;5056496;28;20211;-69
2022/08/28 09:34:23;;;;;;;22.85;10.65;;;;;;;20.71;100.00;96355.25;5055873;28;20258;-69
2022/08/28 09:36:52;;;;;;;24.45;11.30;;;;;;;20.77;100.00;96354.34;5056510;28;20270;-69
2022/08/28 09:39:21;;;;;;;22.65;11.43;;;;;;;20.75;100.00;96359.13;5056195;28;20204;-68
2022/08/28 09:44:49;;;;;;;29.80;11.77;;;;;;;20.71;100.00;96360.63;5056198;28;20259;-68
2022/08/28 09:47:39;;;;;;;22.40;11.80;;;;;;;20.61;100.00;96357.72;5057149;28;20206;-69
2022/08/28 09:50:31;;;;;;;24.63;12.15;;;;;;;20.79;100.00;96354.94;5054864;28;20294;-69
2022/08/28 09:53:16;;;;;;;25.38;11.48;;;;;;;20.75;100.00;96357.28;5056276;28;20232;-67
2022/08/28 09:55:53;;;;;;;24.90;12.43;;;;;;;20.89;100.00;96348.72;5056646;28;20228;-67
2022/08/28 09:58:20;;;;;;;26.17;11.75;;;;;;;20.69;100.00;96358.19;5056819;28;20668;-68
2022/08/28 10:00:52;;;;;;;28.55;12.68;;;;;;;20.91;100.00;96354.66;5056015;28;20205;-68
2022/08/28 10:03:23;;;;;;;26.30;12.35;;;;;;;20.93;100.00;96349.88;5054596;28;20235;-69
2022/08/28 10:06:00;;;;;;;22.73;11.68;;;;;;;20.89;100.00;96351.41;5056287;28;20208;-69
2022/08/28 10:08:43;;;;;;;25.45;12.32;;;;;;;21.17;100.00;96348.75;5055016;28;20257;-69
2022/08/28 10:11:19;;;;;;;24.17;11.18;;;;;;;21.21;100.00;96357.94;5056086;28;20203;-69
2022/08/28 10:13:56;;;;;;;23.60;12.07;;;;;;;21.48;100.00;96359.75;5054945;28;20228;-68
2022/08/28 10:16:34;;;;;;;24.55;12.48;;;;;;;21.54;100.00;96358.84;5056102;28;20592;-69
2022/08/28 10:19:11;;;;;;;20.42;10.82;;;;;;;21.48;100.00;96353.59;5055940;28;20680;-68
2022/08/28 10:21:44;;;;;;;19.92;10.70;;;;;;;21.49;100.00;96357.91;5055477;28;20206;-67
2022/08/28 10:24:29;;;;;;;20.70;10.43;;;;;;;21.30;100.00;96355.69;5055291;28;20229;-68
2022/08/28 10:27:04;;;;;;;20.67;10.60;;;;;;;21.51;100.00;96358.50;5055937;28;20196;-67
2022/08/28 10:29:44;;;;;;;22.33;11.90;;;;;;;21.87;100.00;96363.41;5055751;28;20200;-69
2022/08/28 10:32:25;;;;;;;21.35;10.50;;;;;;;22.03;100.00;96357.25;5056447;28;20208;-67
2022/08/28 10:35:02;;;;;;;22.08;10.73;;;;;;;22.56;100.00;96356.47;5056202;28;20239;-68
2022/08/28 10:37:42;;;;;;;21.45;10.77;;;;;;;22.73;100.00;96349.16;5056715;28;20228;-69
2022/08/28 10:40:15;;;;;;;21.67;10.98;;;;;;;23.07;100.00;96353.41;5056212;28;20204;-68
2022/08/28 10:42:47;;;;;;;22.50;10.77;;;;;;;23.08;100.00;96349.66;5054738;28;20204;-69
2022/08/28 10:45:16;;;;;;;19.02;10.40;;;;;;;22.86;100.00;96344.25;5055798;28;20680;-69
2022/08/28 10:47:48;;;;;;;20.85;10.27;;;;;;;22.85;100.00;96349.88;5055681;28;20196;-68
2022/08/28 10:50:20;;;;;;;19.13;9.60;;;;;;;22.91;98.94;96347.00;5053382;28;20330;-68
2022/08/28 10:52:53;;;;;;;18.60;10.20;;;;;;;23.27;100.00;96345.53;5054853;28;20242;-69
2022/08/28 10:55:25;;;;;;;20.27;10.05;;;;;;;23.30;99.36;96345.84;5055663;28;20591;-69
2022/08/28 10:57:57;;;;;;;16.95;9.15;;;;;;;23.30;100.00;96353.91;5055534;28;20219;-69
2022/08/28 11:00:26;;;;;;;17.52;8.82;;;;;;;23.11;99.50;96343.75;5055788;28;20671;-69
2022/08/28 11:02:55;;;;;;;15.82;8.10;;;;;;;23.40;97.73;96340.59;5055971;28;20223;-68
2022/08/28 11:05:24;;;;;;;18.67;8.68;;;;;;;23.29;98.25;96341.53;5055983;28;20282;-68
2022/08/28 11:07:54;;;;;;;14.27;8.10;;;;;;;23.43;94.76;96348.97;5055802;28;21185;-68
2022/08/28 11:10:44;;;;;;;15.60;7.85;;;;;;;23.91;91.52;96354.28;5055751;28;20668;-70
2022/08/28 11:13:12;;;;;;;15.23;7.97;;;;;;;23.94;90.04;96348.38;5055965;28;20220;-67
2022/08/28 11:15:49;;;;;;;13.43;7.53;;;;;;;23.99;88.69;96348.41;5055557;28;20200;-70
2022/08/28 11:19:06;;;;;;;15.32;8.00;;;;;;;24.15;93.29;96355.56;5056659;28;20208;-70
2022/08/28 11:21:40;;;;;;;16.27;8.38;;;;;;;24.53;87.28;96350.75;5050457;28;20201;-68
2022/08/28 11:24:11;;;;;;;14.60;8.30;;;;;;;24.22;87.18;96356.13;5055238;28;20216;-70
2022/08/28 11:27:01;;;;;;;15.18;8.13;;;;;;;23.63;87.86;96356.41;5056200;28;20372;-69
2022/08/28 11:30:19;;;;;;;15.48;7.68;;;;;;;23.55;89.80;96354.19;5055849;28;20258;-70
2022/08/28 11:32:58;;;;;;;14.02;7.88;;;;;;;23.78;89.46;96352.03;4973833;28;20231;-69